Search for airport 
image banner adimage banner adimage banner ad
image banner ad

NV14 - Juniper

Located in Montello, United States

ICAO - NV14, IATA -

Data provided by Airmate  

General information

Coordinates: N41°21'20" W114°13'48"
Elevation is 5400 feet MSL.
Magnetic variation is 16° East
View others Airports in Nevada

Operational data

Special qualification required
Current time UTC:
Current local time:
Weather at : KENV - Wendover ( 73 km )
METAR: KENV 092056Z AUTO VRB06KT 10SM FEW110 16/M07 A3002 RMK AO2 SLP155 T01611067 56021
TAF: KENV 091740Z 0918/1018 14008KT P6SM BKN150 FM100200 32009KT P6SM SCT080 BKN100
View NOTAMs / SUP AIP / TFR affecting this airport [VIEW]
Communications frequencies: [VIEW]

Runways:

RWY identifierQFULength (ft)Width (ft)SurfaceLDA (ft)
07210040OTHER
25210040OTHER

Airport contact information

Address: Montello United States

Satellite view of NV14